Time;durP1;ratioP1;P1;durP2;ratioP2;P2;SDS_P1;SDS_P2;PMS_P1;PMS_P2;Temp;Humidity;BMP_temperature;BMP_pressure;BME280_temperature;BME280_humidity;BME280_pressure;Samples;Min_cycle;Max_cycle;Signal;HPM_P1;HPM_P2
2022/03/08 00:00:55;;;;;;;6.20;3.17;;;;;;;-1.84;80.69;99871.97;10544412;28;20314;-74
2022/03/08 00:05:56;;;;;;;8.52;3.45;;;;;;;-3.12;81.00;99677.44;10544502;28;20036;-74
2022/03/08 00:10:57;;;;;;;5.63;3.17;;;;;;;-2.84;81.22;99718.06;10544621;28;20084;-74
2022/03/08 00:15:58;;;;;;;6.55;3.05;;;;;;;-2.45;81.17;99778.84;10543233;28;20161;-74
2022/03/08 00:20:59;;;;;;;6.20;2.97;;;;;;;-2.12;81.21;99853.91;10543862;28;20075;-74
2022/03/08 00:26:00;;;;;;;6.97;3.33;;;;;;;-2.69;81.44;99765.66;10535661;28;20042;-74
2022/03/08 00:31:01;;;;;;;9.00;3.80;;;;;;;-3.27;80.62;99694.81;10539086;28;20056;-74
2022/03/08 00:36:02;;;;;;;7.50;3.78;;;;;;;-2.38;80.34;99869.41;10534507;28;20046;-74
2022/03/08 00:41:03;;;;;;;7.57;3.38;;;;;;;-2.74;81.06;99817.13;10501658;28;20139;-74
2022/03/08 00:46:04;;;;;;;5.45;3.25;;;;;;;-2.57;81.29;99848.09;10500109;28;20135;-73
2022/03/08 00:51:05;;;;;;;8.45;4.63;;;;;;;-2.44;82.24;99851.59;10500464;28;20049;-74
2022/03/08 00:56:06;;;;;;;7.47;4.72;;;;;;;-3.58;81.29;99693.28;10499243;28;20170;-74
2022/03/08 01:01:08;;;;;;;13.52;5.40;;;;;;;-2.62;80.93;99863.16;10500768;28;20071;-73
2022/03/08 01:06:10;;;;;;;15.43;6.57;;;;;;;-3.55;80.80;99700.91;10499790;28;20090;-74
2022/03/08 01:11:11;;;;;;;13.27;5.90;;;;;;;-2.56;81.40;99861.00;10499549;28;20068;-74
2022/03/08 01:16:12;;;;;;;9.45;4.55;;;;;;;-2.82;81.98;99800.22;10499249;28;20033;-74
2022/03/08 01:21:14;;;;;;;9.50;4.00;;;;;;;-2.57;81.41;99828.13;10499464;28;20137;-74
2022/03/08 01:26:15;;;;;;;12.60;4.38;;;;;;;-2.91;81.86;99766.19;10498606;28;20105;-73
2022/03/08 01:31:16;;;;;;;9.60;3.60;;;;;;;-2.57;82.23;99811.69;10499085;28;20130;-74
2022/03/08 01:36:17;;;;;;;7.85;3.65;;;;;;;-2.63;82.19;99797.31;10499490;28;20055;-74
2022/03/08 01:41:18;;;;;;;4.10;2.80;;;;;;;-2.48;81.46;99844.06;10498587;28;20036;-73
2022/03/08 01:46:19;;;;;;;5.22;2.50;;;;;;;-3.48;81.59;99691.78;10498397;28;20072;-74
2022/03/08 01:51:22;;;;;;;6.60;2.95;;;;;;;-2.37;81.77;99852.84;10497419;28;20068;-74
2022/03/08 01:56:23;;;;;;;4.30;2.80;;;;;;;-3.29;81.23;99697.53;10498186;28;20037;-78
2022/03/08 02:01:24;;;;;;;5.53;3.10;;;;;;;-2.03;81.94;99883.69;10498261;28;20098;-73
2022/03/08 02:06:25;;;;;;;5.13;3.10;;;;;;;-2.04;82.08;99850.78;10495450;28;20029;-73
2022/03/08 02:11:26;;;;;;;6.95;3.78;;;;;;;-1.79;83.16;99882.09;10497476;28;20057;-74
2022/03/08 02:16:27;;;;;;;14.13;5.30;;;;;;;-1.64;81.90;99864.63;10496940;28;20142;-74
2022/03/08 02:21:32;;;;;;;19.00;7.40;;;;;;;-1.57;82.58;99865.88;10497661;28;20095;-74
2022/03/08 02:26:33;;;;;;;19.52;7.85;;;;;;;-1.55;82.84;99869.22;10497304;28;20456;-74
2022/03/08 02:31:34;;;;;;;17.98;7.38;;;;;;;-1.56;82.90;99844.09;10496008;28;20139;-74
2022/03/08 02:36:35;;;;;;;20.20;7.43;;;;;;;-1.99;82.66;99748.03;10497305;28;20126;-74
2022/03/08 02:41:36;;;;;;;19.20;6.45;;;;;;;-1.12;82.93;99855.06;10495953;28;20185;-74
2022/03/08 02:46:36;;;;;;;14.93;7.05;;;;;;;-1.22;82.62;99847.06;10495771;28;20124;-74
2022/03/08 02:51:37;;;;;;;12.88;5.78;;;;;;;-1.28;83.27;99834.44;10495429;28;20044;-74
2022/03/08 02:56:39;;;;;;;17.48;6.32;;;;;;;-1.46;83.42;99810.47;10495589;28;20121;-74
2022/03/08 03:01:39;;;;;;;15.07;5.75;;;;;;;-1.24;82.96;99830.69;10495411;28;20127;-75
2022/03/08 03:06:41;;;;;;;12.15;5.22;;;;;;;-2.08;82.32;99671.41;10496058;28;20119;-74
2022/03/08 03:11:42;;;;;;;12.48;5.32;;;;;;;-1.97;82.84;99706.31;10495844;28;20060;-74
2022/03/08 03:16:43;;;;;;;14.68;5.43;;;;;;;-1.39;83.15;99807.31;10499671;28;20589;-74
2022/03/08 03:21:44;;;;;;;11.77;5.35;;;;;;;-1.11;83.33;99857.53;10522880;28;20186;-74
2022/03/08 03:26:45;;;;;;;12.10;5.22;;;;;;;-1.10;82.36;99871.44;10534519;28;20044;-74
2022/03/08 03:31:45;;;;;;;9.70;4.40;;;;;;;-1.17;82.75;99855.38;10544911;28;20200;-74
2022/03/08 03:36:46;;;;;;;9.13;4.13;;;;;;;-1.52;82.48;99797.88;10521815;28;20047;-74
2022/03/08 03:41:47;;;;;;;14.05;4.60;;;;;;;-1.33;82.93;99816.50;10545640;28;20044;-74
2022/03/08 03:46:48;;;;;;;9.07;4.25;;;;;;;-1.71;82.45;99747.00;10505097;28;20040;-74
2022/03/08 03:51:51;;;;;;;17.98;5.90;;;;;;;-1.08;82.77;99859.94;10508982;28;20105;-75
2022/03/08 03:56:51;;;;;;;9.13;5.32;;;;;;;-1.13;82.75;99828.16;10508164;28;20037;-74
2022/03/08 04:01:52;;;;;;;18.92;5.53;;;;;;;-0.75;83.00;99858.53;10514281;28;20404;-74
2022/03/08 04:06:53;;;;;;;11.07;5.40;;;;;;;-1.44;81.77;99707.81;10529118;28;20135;-76
2022/03/08 04:11:54;;;;;;;17.13;6.15;;;;;;;-0.61;81.86;99821.06;10521387;28;20056;-75
2022/03/08 04:16:55;;;;;;;8.73;4.35;;;;;;;-0.41;81.19;99843.94;10511523;28;20445;-74
2022/03/08 04:21:56;;;;;;;7.65;3.83;;;;;;;-1.02;81.57;99733.56;10503046;28;20049;-75
2022/03/08 04:26:57;;;;;;;9.50;4.22;;;;;;;-0.87;81.80;99752.50;10512768;28;20044;-75
2022/03/08 04:31:58;;;;;;;7.88;3.83;;;;;;;-0.38;81.33;99817.63;10502671;28;20047;-75
2022/03/08 04:36:58;;;;;;;9.10;3.70;;;;;;;-0.06;81.37;99858.81;10501098;28;20044;-75
2022/03/08 04:41:59;;;;;;;11.40;4.05;;;;;;;0.01;81.54;99852.22;10500896;28;20138;-75
2022/03/08 04:47:00;;;;;;;8.30;3.88;;;;;;;0.18;81.61;99840.50;10501297;28;20037;-75
2022/03/08 04:52:01;;;;;;;6.57;3.53;;;;;;;-0.18;80.51;99777.03;10500874;28;20049;-75
2022/03/08 04:57:03;;;;;;;9.43;4.55;;;;;;;0.32;80.42;99826.44;10500388;28;20115;-76
2022/03/08 05:02:04;;;;;;;28.67;7.68;;;;;;;-0.18;80.67;99758.75;10500100;28;20036;-76
2022/03/08 05:07:05;;;;;;;20.17;6.65;;;;;;;0.17;80.78;99781.41;10510401;28;20159;-76
2022/03/08 05:12:08;;;;;;;15.73;6.45;;;;;;;0.31;80.17;99794.25;10498510;28;20095;-75
2022/03/08 05:17:09;;;;;;;18.65;6.80;;;;;;;0.47;80.94;99809.59;10520144;28;20423;-76
2022/03/08 05:22:09;;;;;;;15.80;6.80;;;;;;;-0.78;80.69;99549.28;10524078;28;20043;-75
2022/03/08 05:27:10;;;;;;;14.10;6.63;;;;;;;0.41;80.03;99705.53;10524751;28;20048;-77
2022/03/08 05:32:11;;;;;;;9.45;5.20;;;;;;;0.80;79.35;99679.84;10511584;28;20526;-77
2022/03/08 05:37:12;;;;;;;14.70;5.40;;;;;;;1.04;78.97;99658.75;10509888;28;20403;-77
2022/03/08 05:42:13;;;;;;;10.85;4.53;;;;;;;2.07;79.25;99789.94;10493918;28;20068;-79
2022/03/08 05:47:13;;;;;;;9.77;4.50;;;;;;;2.09;78.84;99788.00;10513774;28;20071;-78
2022/03/08 05:52:14;;;;;;;13.38;3.88;;;;;;;2.18;79.47;99783.78;10501356;28;20044;-79
2022/03/08 05:57:15;;;;;;;11.40;2.97;;;;;;;2.24;79.73;99783.25;10499689;28;20119;-77
2022/03/08 06:02:17;;;;;;;7.45;2.00;;;;;;;2.28;82.00;99758.47;10519639;28;20123;-78
2022/03/08 06:07:20;;;;;;;5.40;2.30;;;;;;;2.54;83.51;99753.63;10536790;28;20029;-78
2022/03/08 06:12:20;;;;;;;6.85;3.00;;;;;;;2.72;84.94;99753.84;10509708;28;20173;-79
2022/03/08 06:17:21;;;;;;;7.50;1.95;;;;;;;2.16;85.26;99597.88;10502698;28;20082;-78
2022/03/08 06:22:22;;;;;;;8.77;1.88;;;;;;;2.12;85.85;99570.28;10496363;28;20052;-77
2022/03/08 06:27:23;;;;;;;14.80;2.65;;;;;;;3.14;86.63;99730.94;10496783;28;20037;-77
2022/03/08 06:32:24;;;;;;;11.60;3.22;;;;;;;2.77;85.92;99614.44;10495263;28;20047;-77
2022/03/08 06:37:26;;;;;;;9.65;2.90;;;;;;;3.59;86.14;99719.06;10496521;28;20048;-76
2022/03/08 06:42:27;;;;;;;7.88;3.05;;;;;;;3.13;nan;99587.53;10496135;28;20098;-77
2022/03/08 06:47:27;;;;;;;8.13;2.58;;;;;;;4.35;84.18;99695.44;10516203;28;20121;-77
2022/03/08 06:52:28;;;;;;;4.95;2.55;;;;;;;3.96;84.31;99663.19;10537544;28;20060;-76
2022/03/08 06:57:30;;;;;;;9.70;3.08;;;;;;;4.13;84.52;99688.72;10525758;28;20048;-74
2022/03/08 07:02:30;;;;;;;5.75;2.95;;;;;;;3.77;83.79;99600.97;10510548;28;20044;-73
2022/03/08 07:07:32;;;;;;;7.35;2.97;;;;;;;3.47;83.95;99555.59;10495152;28;20127;-75
2022/03/08 07:12:33;;;;;;;6.55;3.80;;;;;;;4.45;83.40;99713.81;10515913;28;20407;-75
2022/03/08 07:17:36;;;;;;;8.65;3.33;;;;;;;4.36;83.73;99726.00;10516315;28;20045;-76
2022/03/08 07:22:37;;;;;;;6.90;3.65;;;;;;;4.03;83.60;99654.56;10516539;28;20045;-75
2022/03/08 07:27:38;;;;;;;6.07;3.35;;;;;;;4.28;82.60;99689.94;10495441;28;20052;-75
2022/03/08 07:32:39;;;;;;;7.78;3.13;;;;;;;4.34;82.76;99643.81;10493308;28;20036;-75
2022/03/08 07:37:40;;;;;;;5.32;2.92;;;;;;;4.89;81.34;99685.06;10506800;28;20042;-75
2022/03/08 07:42:41;;;;;;;8.27;3.42;;;;;;;4.91;81.57;99683.13;10513886;28;20122;-75
2022/03/08 07:47:42;;;;;;;6.43;3.17;;;;;;;4.85;81.21;99670.56;10526389;28;20048;-74
2022/03/08 07:52:42;;;;;;;11.13;3.72;;;;;;;4.39;81.54;99620.53;10514246;28;20043;-74
2022/03/08 07:57:43;;;;;;;7.00;3.60;;;;;;;5.31;80.57;99656.38;10512944;28;20067;-77
2022/03/08 08:02:44;;;;;;;6.38;2.85;;;;;;;5.59;78.15;99622.00;10510525;28;20104;-74
2022/03/08 08:07:45;;;;;;;7.90;4.00;;;;;;;5.39;76.91;99508.97;10518354;28;20047;-73
2022/03/08 08:12:46;;;;;;;6.50;2.95;;;;;;;6.25;73.61;99545.00;10517948;28;20052;-75
2022/03/08 08:17:47;;;;;;;11.23;3.33;;;;;;;6.83;72.72;99586.38;10477443;28;20087;-74
2022/03/08 08:22:48;;;;;;;8.40;3.20;;;;;;;6.03;71.33;99392.63;10479342;28;20044;-76
2022/03/08 08:27:49;;;;;;;5.75;3.05;;;;;;;7.50;69.91;99604.72;10477062;28;20068;-76
2022/03/08 08:32:52;;;;;;;8.85;3.45;;;;;;;7.75;68.00;99618.75;10482920;28;20128;-73
2022/03/08 08:37:53;;;;;;;8.63;3.27;;;;;;;7.00;67.31;99513.28;10460675;28;20072;-77
2022/03/08 08:42:54;;;;;;;6.75;3.47;;;;;;;7.27;68.02;99625.72;10455996;28;20041;-73
2022/03/08 08:47:55;;;;;;;7.82;3.90;;;;;;;6.66;68.06;99541.63;10457217;28;20175;-76
2022/03/08 08:52:56;;;;;;;14.20;3.95;;;;;;;7.17;67.87;99597.78;10469961;28;20052;-77
2022/03/08 08:57:56;;;;;;;14.07;4.05;;;;;;;6.56;67.87;99468.72;10481321;28;20051;-77
2022/03/08 09:02:57;;;;;;;5.50;3.03;;;;;;;7.47;66.32;99575.97;10485199;28;20626;-77
2022/03/08 09:07:58;;;;;;;10.15;3.05;;;;;;;7.62;66.25;99584.06;10470580;28;20040;-76
2022/03/08 09:12:59;;;;;;;10.90;2.80;;;;;;;7.51;65.62;99573.84;10485324;28;20040;-77
2022/03/08 09:18:00;;;;;;;6.25;3.00;;;;;;;6.66;66.17;99452.72;10500124;28;20495;-76
2022/03/08 09:23:01;;;;;;;6.00;2.80;;;;;;;7.13;65.45;99541.00;10499003;28;20056;-75
2022/03/08 09:28:05;;;;;;;5.18;2.72;;;;;;;6.81;66.56;99572.50;10499687;28;20067;-75
2022/03/08 09:33:06;;;;;;;13.55;2.78;;;;;;;6.90;67.79;99609.47;10498180;28;20078;-76
2022/03/08 09:38:06;;;;;;;5.68;2.63;;;;;;;6.35;67.90;99558.03;10498106;28;20036;-75
2022/03/08 09:43:07;;;;;;;4.57;2.67;;;;;;;5.84;68.27;99509.69;10498532;28;20491;-75
2022/03/08 09:48:09;;;;;;;5.55;2.78;;;;;;;6.28;68.96;99615.91;10496970;28;20040;-76
2022/03/08 09:53:12;;;;;;;3.72;2.13;;;;;;;6.29;69.09;99641.28;10498232;28;20128;-76
2022/03/08 09:58:12;;;;;;;4.47;2.42;;;;;;;5.82;69.98;99554.66;10497273;28;20511;-75
2022/03/08 10:03:13;;;;;;;4.32;2.30;;;;;;;5.24;68.45;99403.38;10496979;28;20051;-76
2022/03/08 10:08:21;;;;;;;6.72;2.88;;;;;;;6.26;68.43;99535.25;10497437;28;20143;-76
2022/03/08 10:13:25;;;;;;;7.47;3.05;;;;;;;7.11;67.49;99633.59;10496751;28;20061;-75
2022/03/08 10:18:37;;;;;;;7.13;2.57;;;;;;;7.46;66.89;99642.22;10497174;28;20032;-78
2022/03/08 10:23:41;;;;;;;6.65;2.75;;;;;;;7.69;66.36;99629.19;10496422;28;20522;-76
2022/03/08 10:28:46;;;;;;;9.18;3.45;;;;;;;7.73;65.62;99599.56;10496296;28;20484;-76
2022/03/08 10:33:49;;;;;;;10.63;3.25;;;;;;;8.01;65.38;99607.94;10496134;28;20496;-76
2022/03/08 10:39:12;;;;;;;10.95;3.38;;;;;;;7.36;64.64;99453.94;10496526;28;20047;-76
2022/03/08 10:44:12;;;;;;;9.85;3.22;;;;;;;8.12;64.45;99542.44;10467185;28;20154;-76
2022/03/08 10:49:13;;;;;;;5.85;3.28;;;;;;;8.65;63.70;99589.38;10496223;28;20119;-76
2022/03/08 10:54:15;;;;;;;9.63;2.88;;;;;;;8.48;63.18;99549.91;10494974;28;20130;-77
2022/03/08 10:59:18;;;;;;;8.73;3.38;;;;;;;8.01;63.34;99509.25;10496477;28;20055;-76
2022/03/08 11:04:23;;;;;;;7.10;2.67;;;;;;;8.26;63.03;99547.03;10495415;28;20041;-76
2022/03/08 11:09:24;;;;;;;5.60;2.63;;;;;;;8.46;62.48;99568.59;10511089;28;20064;-76
2022/03/08 11:14:25;;;;;;;6.35;2.22;;;;;;;7.97;62.13;99526.47;10495814;28;20049;-76
2022/03/08 11:19:28;;;;;;;5.07;2.20;;;;;;;7.86;61.38;99529.47;10496577;28;20039;-76
2022/03/08 11:24:30;;;;;;;6.32;3.10;;;;;;;8.23;61.56;99574.66;10495718;28;20089;-76
2022/03/08 11:29:33;;;;;;;8.10;2.33;;;;;;;7.30;61.32;99435.16;10495804;28;20504;-76
2022/03/08 11:34:40;;;;;;;5.45;2.10;;;;;;;8.26;60.60;99593.84;10495234;28;20085;-76
2022/03/08 11:39:43;;;;;;;9.13;1.83;;;;;;;8.08;61.30;99594.88;10501842;28;20044;-76
2022/03/08 11:45:06;;;;;;;7.15;2.05;;;;;;;7.96;60.98;99580.38;10503543;28;20040;-77
2022/03/08 11:50:37;;;;;;;5.97;1.92;;;;;;;7.92;61.08;99616.06;10502565;28;20044;-75
2022/03/08 11:55:44;;;;;;;4.70;1.80;;;;;;;7.81;61.91;99622.53;10501903;28;20044;-76
2022/03/08 12:00:58;;;;;;;8.38;1.98;;;;;;;7.86;61.96;99632.59;10502359;28;20041;-76
2022/03/08 12:05:59;;;;;;;;;;;;;;;8.01;61.91;99633.56;10519148;28;20041;-76
2022/03/08 12:11:26;;;;;;;7.20;2.10;;;;;;;8.12;62.01;99641.16;10501693;28;20303;-76
2022/03/08 12:16:27;;;;;;;11.80;1.45;;;;;;;8.05;61.30;99634.91;10498522;28;20044;-75
2022/03/08 12:21:31;;;;;;;4.38;1.90;;;;;;;7.27;60.86;99520.03;10501954;28;20127;-76
2022/03/08 12:26:41;;;;;;;12.23;2.00;;;;;;;8.05;60.72;99634.03;10501643;28;20044;-76
2022/03/08 12:31:57;;;;;;;5.15;1.77;;;;;;;8.28;60.09;99647.38;10501259;28;20142;-76
2022/03/08 12:37:08;;;;;;;3.80;1.50;;;;;;;8.40;59.85;99632.81;10501259;28;20036;-76
2022/03/08 12:42:19;;;;;;;5.15;1.50;;;;;;;8.46;59.43;99618.91;10500505;28;20036;-76
2022/03/08 12:47:21;;;;;;;5.40;1.67;;;;;;;8.83;58.87;99623.53;10500211;28;20035;-76
2022/03/08 12:52:22;;;;;;;5.35;1.95;;;;;;;8.97;58.41;99671.44;10500516;28;20500;-76
2022/03/08 12:57:23;;;;;;;4.47;1.77;;;;;;;8.98;58.90;99650.09;10500173;28;20048;-76
2022/03/08 13:02:24;;;;;;;7.20;1.80;;;;;;;8.91;58.74;99644.69;10499967;28;20044;-75
2022/03/08 13:07:25;;;;;;;11.95;1.50;;;;;;;8.32;59.13;99571.97;10500057;28;20041;-76
2022/03/08 13:12:33;;;;;;;15.50;1.70;;;;;;;8.44;58.61;99607.69;10515294;28;20061;-75
2022/03/08 13:17:34;;;;;;;5.85;1.50;;;;;;;8.56;59.75;99672.47;10493654;28;20044;-76
2022/03/08 13:22:45;;;;;;;5.45;1.42;;;;;;;8.16;59.08;99647.75;10461233;28;20052;-77
2022/03/08 13:28:00;;;;;;;4.72;1.48;;;;;;;8.43;59.95;99714.53;10469151;28;20404;-76
2022/03/08 13:33:19;;;;;;;3.97;1.83;;;;;;;8.22;60.09;99701.81;10471628;28;20080;-77
2022/03/08 13:38:26;;;;;;;5.40;1.65;;;;;;;7.70;60.38;99642.22;10468514;28;20040;-77
2022/03/08 13:43:29;;;;;;;6.82;1.65;;;;;;;8.23;60.36;99738.69;10488177;28;20050;-76
2022/03/08 13:48:32;;;;;;;11.57;1.58;;;;;;;7.88;60.14;99697.56;10476709;28;20076;-77
2022/03/08 13:53:35;;;;;;;7.80;1.92;;;;;;;8.05;59.63;99734.56;10473404;28;20065;-76
2022/03/08 13:58:42;;;;;;;7.70;1.77;;;;;;;8.04;60.02;99751.44;10452676;28;20049;-77
2022/03/08 14:03:44;;;;;;;6.28;1.77;;;;;;;7.86;60.17;99768.28;10453536;28;20047;-77
2022/03/08 14:08:48;;;;;;;11.75;1.92;;;;;;;7.76;60.31;99784.31;10477614;28;20060;-78
2022/03/08 14:13:57;;;;;;;3.43;1.40;;;;;;;6.08;60.02;99532.72;10464013;28;20102;-77
2022/03/08 14:18:58;;;;;;;10.60;1.65;;;;;;;6.57;60.22;99633.13;10481518;28;20527;-77
2022/03/08 14:24:22;;;;;;;7.95;2.15;;;;;;;7.61;60.24;99820.31;10474603;28;20095;-77
2022/03/08 14:29:22;;;;;;;15.37;2.27;;;;;;;7.15;61.11;99776.72;10472501;28;20051;-78
2022/03/08 14:34:31;;;;;;;12.02;1.90;;;;;;;7.47;60.74;99850.00;10464411;28;20045;-77
2022/03/08 14:39:35;;;;;;;5.85;1.83;;;;;;;7.38;61.24;99858.88;10470218;28;20040;-78
2022/03/08 14:44:38;;;;;;;8.30;2.47;;;;;;;6.94;61.30;99804.41;10466048;28;20504;-79
2022/03/08 14:49:42;;;;;;;10.45;2.58;;;;;;;7.17;60.99;99859.28;10467452;28;20099;-78
2022/03/08 14:54:44;;;;;;;5.97;2.20;;;;;;;7.10;61.53;99872.31;10467186;28;20075;-77
2022/03/08 14:59:44;;;;;;;7.70;2.20;;;;;;;6.80;61.76;99845.41;10478048;28;20082;-78
2022/03/08 15:04:45;;;;;;;9.50;2.00;;;;;;;6.90;61.44;99882.25;10479673;28;20423;-76
2022/03/08 15:09:46;;;;;;;8.93;2.15;;;;;;;6.38;61.76;99810.97;10468990;28;20053;-77
2022/03/08 15:14:49;;;;;;;7.97;2.67;;;;;;;6.66;62.12;99874.19;10460380;28;20045;-77
2022/03/08 15:19:51;;;;;;;11.57;2.90;;;;;;;6.84;61.89;99940.97;10459675;28;20044;-77
2022/03/08 15:24:52;;;;;;;10.18;2.80;;;;;;;6.66;61.93;99926.97;10461925;28;20044;-77
2022/03/08 15:29:52;;;;;;;8.07;2.97;;;;;;;5.17;62.68;99704.28;10469522;28;20052;-77
2022/03/08 15:34:53;;;;;;;14.18;6.82;;;;;;;6.25;63.08;99950.34;10471857;28;20037;-78
2022/03/08 15:39:54;;;;;;;20.20;8.98;;;;;;;6.10;64.34;99993.06;10465948;28;20048;-78
2022/03/08 15:44:55;;;;;;;21.80;9.52;;;;;;;4.92;64.93;99861.94;10466111;28;20037;-78
2022/03/08 15:49:56;;;;;;;22.30;11.02;;;;;;;4.96;66.26;99901.97;10471505;28;20087;-81
2022/03/08 15:54:57;;;;;;;29.05;13.98;;;;;;;4.92;66.07;99935.66;10453483;28;20515;-80
2022/03/08 15:59:57;;;;;;;17.13;9.32;;;;;;;4.61;66.45;99942.03;10464475;28;20131;-79
2022/03/08 16:04:58;;;;;;;19.05;9.98;;;;;;;4.66;67.37;99997.72;10453119;28;20139;-78
2022/03/08 16:09:59;;;;;;;17.65;8.18;;;;;;;4.18;67.37;99962.50;10452512;28;20068;-78
2022/03/08 16:15:00;;;;;;;13.93;7.78;;;;;;;4.39;67.25;100064.97;10453620;28;20049;-79
2022/03/08 16:20:02;;;;;;;12.38;7.90;;;;;;;3.19;67.89;99883.56;10463388;28;20539;-79
2022/03/08 16:25:03;;;;;;;15.05;8.15;;;;;;;3.65;68.00;99982.03;10474857;28;20068;-78
2022/03/08 16:30:05;;;;;;;28.05;8.95;;;;;;;2.32;68.82;99793.94;10479467;28;20072;-79
2022/03/08 16:35:08;;;;;;;21.27;9.35;;;;;;;3.88;68.50;100076.41;10472989;28;20037;-78
2022/03/08 16:40:10;;;;;;;31.10;13.75;;;;;;;3.46;69.58;100039.72;10479535;28;20040;-78
2022/03/08 16:45:10;;;;;;;25.77;12.32;;;;;;;3.66;69.80;100087.94;10476760;28;20512;-77
2022/03/08 16:50:11;;;;;;;35.47;13.90;;;;;;;3.24;69.82;100032.00;10476179;28;20040;-79
2022/03/08 16:55:15;;;;;;;37.47;15.48;;;;;;;3.39;70.67;100072.72;10479610;28;20031;-80
2022/03/08 17:00:16;;;;;;;92.95;36.55;;;;;;;3.28;70.73;100094.59;10478937;28;20123;-79
2022/03/08 17:05:17;;;;;;;35.03;18.63;;;;;;;1.96;70.99;99907.84;10477169;28;20032;-79
2022/03/08 17:10:18;;;;;;;32.72;12.35;;;;;;;1.60;71.03;99892.34;10473386;28;20117;-78
2022/03/08 17:15:19;;;;;;;23.15;9.57;;;;;;;2.58;71.60;100085.44;10474830;28;20143;-79
2022/03/08 17:20:20;;;;;;;48.53;25.02;;;;;;;2.35;71.83;100041.88;10476543;28;20040;-79
2022/03/08 17:25:21;;;;;;;94.25;47.92;;;;;;;1.71;71.84;99938.63;10476632;28;20052;-80
2022/03/08 17:30:22;;;;;;;71.93;37.78;;;;;;;1.45;71.70;99932.81;10468936;28;20077;-78
2022/03/08 17:35:24;;;;;;;30.85;13.00;;;;;;;2.41;72.20;100127.91;10479107;28;20128;-79
2022/03/08 17:40:25;;;;;;;19.30;8.98;;;;;;;1.99;72.72;100078.72;10470354;28;20051;-78
2022/03/08 17:45:25;;;;;;;14.98;8.07;;;;;;;1.20;72.57;99974.91;10475371;28;20072;-79
2022/03/08 17:50:26;;;;;;;20.20;7.70;;;;;;;2.24;73.36;100158.91;10474352;28;20068;-80
2022/03/08 17:55:27;;;;;;;13.38;8.02;;;;;;;1.37;73.96;100001.44;10470029;28;20064;-79
2022/03/08 18:00:28;;;;;;;14.10;8.07;;;;;;;2.53;73.62;100160.19;10473244;28;20044;-81
2022/03/08 18:05:29;;;;;;;13.30;7.53;;;;;;;1.55;72.78;99995.75;10489569;28;20063;-78
2022/03/08 18:10:30;;;;;;;13.75;8.13;;;;;;;2.22;73.24;100104.94;10497080;28;20048;-78
2022/03/08 18:15:30;;;;;;;15.57;7.05;;;;;;;2.74;73.69;100164.56;10470954;28;20094;-79
2022/03/08 18:20:32;;;;;;;12.93;7.10;;;;;;;2.03;73.35;100022.53;10475008;28;20059;-78
2022/03/08 18:25:33;;;;;;;15.93;7.03;;;;;;;3.18;73.79;100196.06;10488213;28;20543;-79
2022/03/08 18:30:35;;;;;;;8.50;5.63;;;;;;;3.30;74.11;100189.81;10497061;28;20045;-78
2022/03/08 18:35:36;;;;;;;8.10;5.10;;;;;;;3.14;73.85;100145.63;10465389;28;20040;-78
2022/03/08 18:40:37;;;;;;;8.55;4.85;;;;;;;3.34;74.59;100161.53;10454901;28;20032;-79
2022/03/08 18:45:41;;;;;;;9.23;4.82;;;;;;;3.47;74.95;100179.72;10455427;28;20051;-79
2022/03/08 18:50:42;;;;;;;7.65;4.45;;;;;;;3.57;75.18;100194.59;10454669;28;20052;-79
2022/03/08 18:55:43;;;;;;;6.18;4.05;;;;;;;3.33;74.85;100173.00;10470351;28;20110;-79
2022/03/08 19:00:44;;;;;;;6.63;4.65;;;;;;;3.35;75.77;100179.78;10454556;28;20068;-79
2022/03/08 19:05:46;;;;;;;6.45;4.20;;;;;;;2.80;75.82;100091.59;10454155;28;20045;-79
2022/03/08 19:10:48;;;;;;;8.15;4.88;;;;;;;2.87;75.57;100132.09;10470363;28;20096;-79
2022/03/08 19:15:49;;;;;;;10.70;6.18;;;;;;;2.89;75.71;100133.63;10453945;28;20451;-79
2022/03/08 19:20:50;;;;;;;8.23;5.63;;;;;;;3.02;75.79;100179.88;10459875;28;20124;-78
2022/03/08 19:25:51;;;;;;;10.70;6.22;;;;;;;3.35;75.66;100218.31;10495000;28;20135;-78
2022/03/08 19:30:51;;;;;;;8.95;5.13;;;;;;;2.96;75.71;100145.31;10494904;28;20048;-79
2022/03/08 19:35:52;;;;;;;14.68;7.00;;;;;;;2.74;75.83;100125.22;10495063;28;20052;-79
2022/03/08 19:40:53;;;;;;;7.95;5.30;;;;;;;1.74;75.90;99988.16;10495981;28;20072;-78
2022/03/08 19:45:55;;;;;;;10.07;5.90;;;;;;;2.77;76.31;100179.22;10496264;28;20086;-78
2022/03/08 19:50:57;;;;;;;9.30;4.80;;;;;;;2.43;76.66;100168.78;10495694;28;20045;-79
2022/03/08 19:56:00;;;;;;;8.48;5.22;;;;;;;1.67;76.92;100051.56;10494983;28;20438;-78
2022/03/08 20:01:01;;;;;;;8.35;5.45;;;;;;;2.37;76.93;100194.66;10500470;28;20617;-78
2022/03/08 20:06:02;;;;;;;14.52;5.15;;;;;;;2.15;77.44;100187.59;10502137;28;20090;-78
2022/03/08 20:11:04;;;;;;;7.32;4.57;;;;;;;2.32;76.87;100194.97;10502090;28;20060;-78
2022/03/08 20:16:05;;;;;;;7.22;5.25;;;;;;;2.23;76.54;100188.66;10502449;28;20055;-78
2022/03/08 20:21:06;;;;;;;5.55;4.20;;;;;;;1.92;76.89;100158.75;10501928;28;20182;-78
2022/03/08 20:26:07;;;;;;;8.35;4.15;;;;;;;2.02;76.88;100188.53;10486887;28;20120;-78
2022/03/08 20:31:08;;;;;;;5.55;3.85;;;;;;;1.53;76.90;100128.56;10485626;28;20040;-78
2022/03/08 20:36:09;;;;;;;5.43;3.72;;;;;;;1.18;77.41;100050.91;10501513;28;20032;-79
2022/03/08 20:41:11;;;;;;;7.28;4.97;;;;;;;1.84;76.74;100158.50;10500718;28;20424;-78
2022/03/08 20:46:12;;;;;;;7.78;4.80;;;;;;;2.04;77.34;100196.28;10499287;28;20037;-79
2022/03/08 20:51:13;;;;;;;6.57;4.07;;;;;;;2.10;77.11;100187.94;10500249;28;20048;-79
2022/03/08 20:56:14;;;;;;;30.75;15.52;;;;;;;2.02;76.96;100175.44;10500774;28;20123;-79
2022/03/08 21:01:15;;;;;;;7.78;4.63;;;;;;;1.48;76.56;100105.34;10499094;28;20043;-78
2022/03/08 21:06:16;;;;;;;9.82;5.15;;;;;;;1.83;76.69;100178.63;10499091;28;20036;-78
2022/03/08 21:11:16;;;;;;;16.55;5.90;;;;;;;1.67;76.61;100179.88;10500211;28;20059;-78
2022/03/08 21:16:17;;;;;;;14.55;5.40;;;;;;;1.58;76.50;100170.91;10499959;28;20132;-78
2022/03/08 21:21:18;;;;;;;22.33;6.97;;;;;;;1.11;76.38;100165.66;10499313;28;20045;-79
2022/03/08 21:26:19;;;;;;;18.58;7.40;;;;;;;1.01;77.01;100182.09;10499441;28;20047;-78
2022/03/08 21:31:20;;;;;;;11.13;5.85;;;;;;;0.15;77.90;100034.03;10499216;28;20443;-78
2022/03/08 21:36:21;;;;;;;8.30;5.25;;;;;;;0.90;77.98;100141.88;10497138;28;20036;-78
2022/03/08 21:41:22;;;;;;;13.27;6.53;;;;;;;1.05;77.49;100155.63;10499000;28;20032;-78
2022/03/08 21:46:23;;;;;;;12.68;7.15;;;;;;;1.29;78.64;100168.69;10486469;28;20040;-78
2022/03/08 21:51:24;;;;;;;5.65;3.50;;;;;;;1.05;77.91;100097.25;10465249;28;20060;-79
2022/03/08 21:56:27;;;;;;;6.40;3.65;;;;;;;1.42;77.30;100136.38;10456177;28;20033;-80
2022/03/08 22:01:29;;;;;;;5.25;3.30;;;;;;;1.63;76.35;100136.56;10456996;28;20043;-79
2022/03/08 22:06:29;;;;;;;5.57;3.05;;;;;;;1.13;75.21;100032.91;10457094;28;20075;-80
2022/03/08 22:11:31;;;;;;;6.03;3.20;;;;;;;1.14;75.27;100036.41;10456333;28;20111;-80
2022/03/08 22:16:32;;;;;;;4.57;2.97;;;;;;;1.66;74.56;100131.91;10456777;28;20080;-80
2022/03/08 22:21:34;;;;;;;5.75;3.55;;;;;;;1.42;74.89;100079.63;10454716;28;20064;-78
2022/03/08 22:26:36;;;;;;;5.53;3.70;;;;;;;1.23;74.58;100051.41;10455570;28;20119;-79
2022/03/08 22:31:36;;;;;;;6.43;3.58;;;;;;;0.94;74.80;100029.19;10454571;28;20044;-79
2022/03/08 22:36:37;;;;;;;6.15;3.42;;;;;;;1.84;74.79;100179.44;10454920;28;20492;-79
2022/03/08 22:41:38;;;;;;;4.88;3.20;;;;;;;1.67;74.35;100146.66;10455638;28;20066;-81
2022/03/08 22:46:39;;;;;;;5.05;3.00;;;;;;;1.75;74.82;100196.69;10456152;28;20486;-80
2022/03/08 22:51:48;;;;;;;4.97;3.20;;;;;;;1.23;75.32;100122.06;10454810;28;20041;-79
2022/03/08 22:56:51;;;;;;;7.50;3.67;;;;;;;1.32;75.35;100159.78;10453548;28;20048;-79
2022/03/08 23:01:52;;;;;;;8.57;3.30;;;;;;;0.86;75.65;100087.28;10455140;28;20041;-79
2022/03/08 23:06:53;;;;;;;6.00;3.13;;;;;;;1.08;74.90;100117.94;10455103;28;20033;-79
2022/03/08 23:11:54;;;;;;;4.18;2.70;;;;;;;1.34;74.28;100163.94;10453829;28;20064;-80
2022/03/08 23:16:55;;;;;;;5.57;3.28;;;;;;;1.59;73.95;100222.34;10454303;28;20457;-79
2022/03/08 23:21:57;;;;;;;4.75;3.15;;;;;;;1.12;74.02;100117.59;10453742;28;20095;-80
2022/03/08 23:26:58;;;;;;;7.13;3.47;;;;;;;1.33;73.81;100159.66;10454819;28;20072;-79